createdAt,value
2018-02-02T00:00:01.670Z,3.4
2018-02-02T00:05:02.105Z,3.4
2018-02-02T00:10:01.966Z,3.4
2018-02-02T00:15:01.853Z,3.4
2018-02-02T00:20:02.021Z,3.4
2018-02-02T00:25:03.142Z,3.4
2018-02-02T00:30:01.802Z,3.4
2018-02-02T00:35:02.081Z,3.4
2018-02-02T00:40:02.435Z,3.4
2018-02-02T00:45:01.911Z,3.4
2018-02-02T00:50:02.213Z,3.4
2018-02-02T00:55:01.338Z,3.4
2018-02-02T01:00:02.162Z,3.4
2018-02-02T01:05:02.457Z,3.4
2018-02-02T01:10:01.183Z,3.3
2018-02-02T01:15:01.345Z,3.3
2018-02-02T01:20:02.515Z,3.3
2018-02-02T01:25:01.586Z,3.3
2018-02-02T01:30:01.666Z,3.3
2018-02-02T01:35:01.950Z,3.3
2018-02-02T01:40:02.366Z,3.3
2018-02-02T01:45:01.325Z,3.3
2018-02-02T01:50:02.153Z,3.3
2018-02-02T01:55:01.858Z,3.3
2018-02-02T02:00:02.491Z,3.3
2018-02-02T02:05:02.019Z,3.3
2018-02-02T02:10:01.884Z,3.3
2018-02-02T02:15:01.622Z,3.3
2018-02-02T02:20:01.812Z,3.3
2018-02-02T02:25:01.374Z,3.3
2018-02-02T02:30:01.385Z,3.3
2018-02-02T02:35:02.406Z,3.3
2018-02-02T02:40:02.197Z,3.3
2018-02-02T02:45:01.212Z,3.3
2018-02-02T02:50:02.074Z,3.3
2018-02-02T02:55:02.503Z,3.3
2018-02-02T03:00:01.743Z,3.3
2018-02-02T03:05:01.212Z,3.3
2018-02-02T03:10:01.295Z,3.3
2018-02-02T03:15:02.116Z,3.3
2018-02-02T03:20:02.127Z,3.3
2018-02-02T03:25:01.543Z,3.3
2018-02-02T03:30:01.687Z,3.3
2018-02-02T03:35:01.362Z,3.3
2018-02-02T03:40:01.667Z,3.3
2018-02-02T03:45:01.398Z,3.3
2018-02-02T03:50:02.658Z,3.3
2018-02-02T03:55:01.542Z,2.7
2018-02-02T04:00:01.724Z,2.7
2018-02-02T04:05:01.345Z,2.7
2018-02-02T04:10:01.659Z,2.7
2018-02-02T04:15:02.089Z,2.7
2018-02-02T04:20:01.881Z,2.7
2018-02-02T04:25:02.207Z,2.7
2018-02-02T04:30:01.247Z,2.7
2018-02-02T04:35:01.964Z,2.7
2018-02-02T04:40:01.608Z,2.7
2018-02-02T04:45:02.040Z,2.7
2018-02-02T04:50:01.316Z,2.7
2018-02-02T04:55:01.528Z,2.7
2018-02-02T05:00:02.083Z,2.7
2018-02-02T05:05:01.888Z,2.7
2018-02-02T05:10:01.950Z,2.7
2018-02-02T05:15:01.812Z,2.7
2018-02-02T05:20:02.156Z,2.7
2018-02-02T05:25:01.373Z,2.7
2018-02-02T05:30:01.851Z,2.7
2018-02-02T05:35:01.957Z,2.7
2018-02-02T05:40:02.351Z,2.7
2018-02-02T05:45:01.439Z,2.7
2018-02-02T05:50:01.774Z,2.7
2018-02-02T05:55:01.669Z,2.7
2018-02-02T06:00:02.473Z,2.7
2018-02-02T06:05:01.605Z,2.6
2018-02-02T06:10:01.668Z,2.6
2018-02-02T06:15:02.595Z,2.6
2018-02-02T06:20:01.574Z,2.6
2018-02-02T06:25:01.297Z,2.6
2018-02-02T06:30:01.410Z,2.6
2018-02-02T06:35:01.626Z,2.6
2018-02-02T06:40:01.346Z,2.7
2018-02-02T06:45:01.301Z,2.7
2018-02-02T06:50:02.581Z,2.7
2018-02-02T06:55:01.952Z,2.7
2018-02-02T07:00:01.245Z,2.7
2018-02-02T07:05:02.565Z,2.7
2018-02-02T07:10:01.445Z,2.7
2018-02-02T07:15:01.271Z,2.7
2018-02-02T07:20:01.505Z,2.7
2018-02-02T07:25:01.801Z,2.7
2018-02-02T07:30:01.802Z,2.7
2018-02-02T07:35:01.619Z,2.7
2018-02-02T07:40:01.711Z,2.7
2018-02-02T07:45:01.267Z,2.7
2018-02-02T07:50:01.492Z,2.7
2018-02-02T07:55:02.170Z,2.7
2018-02-02T08:00:01.372Z,2.7
2018-02-02T08:05:02.157Z,2.7
2018-02-02T08:10:01.578Z,2.7
2018-02-02T08:15:01.847Z,2.7
2018-02-02T08:20:01.669Z,2.7
2018-02-02T08:25:02.016Z,2.8
2018-02-02T08:30:01.748Z,2.8
2018-02-02T08:35:01.631Z,2.8
2018-02-02T08:40:01.639Z,2.8
2018-02-02T08:45:02.532Z,2.8
2018-02-02T08:50:01.553Z,3
2018-02-02T08:55:01.474Z,3
2018-02-02T09:00:02.396Z,3
2018-02-02T09:05:01.260Z,3
2018-02-02T09:10:01.362Z,3
2018-02-02T09:15:02.066Z,3.1
2018-02-02T09:20:01.752Z,3.1
2018-02-02T09:25:01.779Z,3.1
2018-02-02T09:30:01.947Z,3.1
2018-02-02T09:35:02.224Z,3.1
2018-02-02T09:40:01.976Z,3.2
2018-02-02T09:45:01.220Z,3.1
2018-02-02T09:50:01.555Z,3.1
2018-02-02T09:55:01.707Z,3.2
2018-02-02T10:00:01.672Z,3.2
2018-02-02T10:05:01.648Z,3.2
2018-02-02T10:10:01.985Z,3.2
2018-02-02T10:15:01.187Z,3.2
2018-02-02T10:20:02.145Z,3.2
2018-02-02T10:25:02.004Z,3.3
2018-02-02T10:30:01.972Z,3.3
2018-02-02T10:35:01.448Z,3.3
2018-02-02T10:40:01.444Z,3.3
2018-02-02T10:45:02.089Z,3.3
2018-02-02T10:50:02.075Z,3.3
2018-02-02T10:55:02.056Z,3.3
2018-02-02T11:00:02.611Z,3.3
2018-02-02T11:05:01.193Z,3.3
2018-02-02T11:10:01.788Z,3.3
2018-02-02T11:15:01.742Z,3.5
2018-02-02T11:20:01.752Z,3.5
2018-02-02T11:25:01.740Z,3.5
2018-02-02T11:30:01.456Z,3.5
2018-02-02T11:35:01.737Z,3.5
2018-02-02T11:40:01.647Z,3.5
2018-02-02T11:45:01.537Z,3.5
2018-02-02T11:50:01.700Z,3.7
2018-02-02T11:55:01.495Z,3.7
2018-02-02T12:00:01.841Z,3.7
2018-02-02T12:05:02.004Z,3.7
2018-02-02T12:10:01.849Z,3.7
2018-02-02T12:15:01.446Z,3.7
2018-02-02T12:20:02.677Z,3.7
2018-02-02T12:25:02.050Z,3.7
2018-02-02T12:30:01.540Z,3.7
2018-02-02T12:35:01.710Z,3.7
2018-02-02T12:40:01.903Z,3.7
2018-02-02T12:45:01.788Z,3.7
2018-02-02T12:50:01.822Z,3.6
2018-02-02T12:55:02.502Z,3.5
2018-02-02T13:00:01.802Z,3.5
2018-02-02T13:05:01.999Z,3.5
2018-02-02T13:10:01.212Z,3.6
2018-02-02T13:15:01.579Z,3.6
2018-02-02T13:20:01.230Z,3.6
2018-02-02T13:25:02.185Z,3.7
2018-02-02T13:30:01.549Z,3.6
2018-02-02T13:35:01.839Z,3.6
2018-02-02T13:40:01.740Z,3.5
2018-02-02T13:45:01.455Z,3.5
2018-02-02T13:50:02.254Z,3.5
2018-02-02T13:55:01.592Z,3.5
2018-02-02T14:00:02.152Z,3.5
2018-02-02T14:05:02.014Z,3.5
2018-02-02T14:10:01.158Z,3.5
2018-02-02T14:15:01.501Z,3.5
2018-02-02T14:20:01.334Z,3.5
2018-02-02T14:25:02.449Z,3.5
2018-02-02T14:30:01.833Z,3.5
2018-02-02T14:35:01.897Z,3.5
2018-02-02T14:40:02.367Z,3.5
2018-02-02T14:45:01.153Z,3.5
2018-02-02T14:50:01.274Z,3.5
2018-02-02T14:55:01.190Z,3.5
2018-02-02T15:00:01.896Z,3.5
2018-02-02T15:05:01.773Z,3.5
2018-02-02T15:10:02.169Z,3.5
2018-02-02T15:15:02.015Z,3.5
2018-02-02T15:20:01.955Z,3.5
2018-02-02T15:25:01.838Z,3.6
2018-02-02T15:30:02.567Z,3.6
2018-02-02T15:35:02.059Z,3.6
2018-02-02T15:40:02.169Z,3.6
2018-02-02T15:45:02.040Z,3.6
2018-02-02T15:50:01.338Z,3.6
2018-02-02T15:55:01.174Z,3.6
2018-02-02T16:00:01.482Z,3.6
2018-02-02T16:05:02.425Z,3.5
2018-02-02T16:10:01.812Z,3.5
2018-02-02T16:15:02.000Z,3.5
2018-02-02T16:20:01.987Z,3.5
2018-02-02T16:25:01.723Z,3.5
2018-02-02T16:30:01.761Z,3.5
2018-02-02T16:35:01.305Z,3.5
2018-02-02T16:40:01.653Z,3.3
2018-02-02T16:45:01.784Z,3.3
2018-02-02T16:50:01.376Z,3.3
2018-02-02T16:55:02.127Z,3.3
2018-02-02T17:00:02.158Z,3.2
2018-02-02T17:05:01.215Z,3.1
2018-02-02T17:10:01.614Z,3.1
2018-02-02T17:15:02.183Z,3.1
2018-02-02T17:20:01.803Z,3.1
2018-02-02T17:25:01.417Z,3.1
2018-02-02T17:30:02.582Z,3.1
2018-02-02T17:35:02.137Z,3.1
2018-02-02T17:40:01.940Z,3.1
2018-02-02T17:45:01.487Z,3.1
2018-02-02T17:50:02.674Z,3.1
2018-02-02T17:55:01.276Z,3
2018-02-02T18:00:01.473Z,3
2018-02-02T18:05:02.459Z,3
2018-02-02T18:10:02.179Z,3
2018-02-02T18:15:01.712Z,3
2018-02-02T18:20:01.449Z,3
2018-02-02T18:25:02.507Z,2.9
2018-02-02T18:30:01.693Z,2.9
2018-02-02T18:35:01.234Z,2.9
2018-02-02T18:40:01.359Z,2.9
2018-02-02T18:45:02.363Z,2.9
2018-02-02T18:50:01.600Z,3
2018-02-02T18:55:01.235Z,3
2018-02-02T19:00:01.543Z,3
2018-02-02T19:05:02.975Z,3
2018-02-02T19:10:01.782Z,3
2018-02-02T19:15:01.677Z,3
2018-02-02T19:20:02.770Z,3
2018-02-02T19:25:01.704Z,3
2018-02-02T19:30:01.292Z,3
2018-02-02T19:35:01.356Z,3
2018-02-02T19:40:02.292Z,3
2018-02-02T19:45:01.788Z,3
2018-02-02T19:50:02.279Z,3
2018-02-02T19:55:01.168Z,3
2018-02-02T20:00:01.861Z,3
2018-02-02T20:05:01.851Z,3
2018-02-02T20:10:02.050Z,3
2018-02-02T20:15:01.623Z,3
2018-02-02T20:20:02.044Z,3
2018-02-02T20:25:01.727Z,3
2018-02-02T20:30:01.922Z,3
2018-02-02T20:35:02.122Z,3
2018-02-02T20:40:01.908Z,3
2018-02-02T20:45:02.036Z,2.7
2018-02-02T20:50:01.860Z,2.7
2018-02-02T20:55:02.960Z,2.7
2018-02-02T21:00:02.738Z,2.7
2018-02-02T21:05:01.247Z,2.7
2018-02-02T21:10:01.572Z,2.7
2018-02-02T21:15:01.569Z,2.7
2018-02-02T21:20:02.165Z,2.7
2018-02-02T21:25:01.892Z,2.7
2018-02-02T21:30:01.234Z,2.7
2018-02-02T21:35:01.430Z,2.7
2018-02-02T21:40:02.120Z,2.7
2018-02-02T21:45:01.147Z,2.7
2018-02-02T21:50:01.873Z,2.7
2018-02-02T21:55:01.969Z,2.7
2018-02-02T22:00:02.134Z,2.7
2018-02-02T22:05:02.360Z,2.5
2018-02-02T22:10:01.669Z,2.5
2018-02-02T22:15:01.357Z,2.5
2018-02-02T22:20:01.988Z,2.5
2018-02-02T22:25:01.477Z,2.5
2018-02-02T22:30:01.770Z,2.5
2018-02-02T22:35:02.254Z,2.5
2018-02-02T22:40:01.380Z,2.5
2018-02-02T22:45:02.014Z,2.3
2018-02-02T22:50:01.933Z,2.3
2018-02-02T22:55:02.462Z,2.3
2018-02-02T23:00:01.794Z,2.2
2018-02-02T23:05:01.752Z,2.2
2018-02-02T23:10:02.862Z,2.2
2018-02-02T23:15:01.666Z,2
2018-02-02T23:20:01.438Z,1.9
2018-02-02T23:25:01.653Z,1.9
2018-02-02T23:30:01.906Z,1.9
2018-02-02T23:35:01.680Z,1.9
2018-02-02T23:40:02.137Z,1.7
2018-02-02T23:45:01.846Z,1.7
2018-02-02T23:50:02.593Z,1.7
2018-02-02T23:55:02.182Z,1.7
